Airfield :
LOGIN :

Register | Disclaimer

   EN    FR    IT 

 










Legend :    VFR   Marginal VFR   IFR   Intensive IFR   Very Intensive IFR
Visi :
Ceiling :
>= 8 km
>= 3000ft
5 to 8 km
1000 to 3000 ft
1500m to 5 km
500 to 1000 ft
800 to 1500m
200 to 500 ft
< 800m
< 200 ft
Symbols :   Thunderstorms  Fog  Heavy snow  Heavy precipitations  Wind > 20 kt
SIGMETs :     Misc.  Thunderstorms  Icing  Turbulence  Mountain Waves  Volcanic Ashes






- Airport Elevation : 209 ft
- IATA code : CLY


LFKC - Calvi

CURRENT METAR :
  • 270830Z AUTO 19014KT 160V230 9999 -RA SCT034/// BKN043/// BKN054/// ///TCU 10/06 Q0997 TEMPO 20020G36KT 4000 TSRA BKN014 SCT030CB BKN040

EXPIRED METARs :
  • 270800Z AUTO 21007KT 170V250 9999 -RA FEW020/// SCT036/// BKN043/// ///CB 11/07 Q0997 TEMPO 4000 SHRA SCT030 BKN050
  • 270730Z AUTO 21009KT 9999 SCT038 BKN052 BKN070 12/06 Q0997 TEMPO 4000 SHRA SCT015CB BKN030
  • 270700Z AUTO 20010KT 9999 SCT037 BKN048 BKN068 12/05 Q0997 NOSIG
  • 270630Z AUTO 20011KT 160V220 9999 BKN038 BKN047 BKN058 12/05 Q0997 NOSIG
  • 270600Z AUTO 19012KT 170V230 9999 FEW035 BKN042 BKN049 12/05 Q0997 TEMPO 21017G27KT

TAF TAF LFKC
Valid from the 27 at 09:00 until the 28 at 09:00 UTC


270800Z 2709/2809 24012KT 9999 SCT030 BKN050 TX13/2712Z TN07/2807Z
TEMPO 2709/2714 20020G36KT
TEMPO 2709/2803 SHRA BKN014 SCT030CB BKN040
PROB30
TEMPO 2709/2724 4000 TSRA
BECMG 2807/2809 22015G28KT
ATIS : +33 4 95 65 82 49



MET'MAP, your aeronautical weather chart ! - Copyright ORBIFLY December 2007 - Disclaimer

ORBIFLY MET'MAP TEAM :

Programming & Development : Alexandra Zaïnal
Concept & original design : Baudouin d'Aumeries
Assistance for programming : Marc-Olivier Méhu
Technical & hardware support : Manuel Goepfert

Contact : metmap@orbifly.com




SOURCES & CREDITS :

   NOAA